createdAt,value
2022-10-26T00:01:17.056Z,100888.56
2022-10-26T00:06:21.590Z,100879.31
2022-10-26T00:11:23.942Z,100871.16
2022-10-26T00:16:27.610Z,100871.34
2022-10-26T00:21:29.133Z,100869.53
2022-10-26T00:26:30.652Z,100871.97
2022-10-26T00:31:32.502Z,100867.53
2022-10-26T00:36:34.009Z,100886.22
2022-10-26T00:41:35.499Z,100893.25
2022-10-26T00:46:38.504Z,100881.09
2022-10-26T00:51:48.488Z,100884.88
2022-10-26T00:56:52.182Z,100878.91
2022-10-26T01:01:53.763Z,100873.47
2022-10-26T01:06:55.936Z,100870.91
2022-10-26T01:11:57.425Z,100874.31
2022-10-26T01:17:10.945Z,100857.09
2022-10-26T01:22:20.433Z,100846.75
2022-10-26T01:27:30.451Z,100840.47
2022-10-26T01:32:52.039Z,100842.72
2022-10-26T01:38:24.797Z,100842.47
2022-10-26T01:43:30.507Z,100835.59
2022-10-26T01:48:33.915Z,100823.63
2022-10-26T01:53:35.581Z,100817.56
2022-10-26T01:58:54.172Z,100812.31
2022-10-26T02:04:01.888Z,100809.69
2022-10-26T02:09:33.459Z,100819.03
2022-10-26T02:14:50.414Z,100809.19
2022-10-26T02:19:59.478Z,100809.44
2022-10-26T02:25:07.359Z,100809.84
2022-10-26T02:30:10.723Z,100800.94
2022-10-26T02:35:15.548Z,100792.22
2022-10-26T02:40:20.738Z,100789.16
2022-10-26T02:45:27.272Z,100789.56
2022-10-26T02:51:07.179Z,100795.84
2022-10-26T02:56:17.395Z,100795.25
2022-10-26T03:01:19.147Z,100781.88
2022-10-26T03:06:22.476Z,100777.19
2022-10-26T03:11:24.082Z,100775.38
2022-10-26T03:16:25.769Z,100779.41
2022-10-26T03:21:27.338Z,100781.47
2022-10-26T03:26:28.915Z,100778.41
2022-10-26T03:31:30.431Z,100779.81
2022-10-26T03:36:32.007Z,100787.34
2022-10-26T03:41:33.982Z,100780.41
2022-10-26T03:46:35.479Z,100788.69
2022-10-26T03:51:37.032Z,100783.22
2022-10-26T03:56:38.539Z,100790.91
2022-10-26T04:01:40.252Z,100776.72
2022-10-26T04:06:41.921Z,100781.56
2022-10-26T04:11:43.479Z,100779.31
2022-10-26T04:16:44.983Z,100777.91
2022-10-26T04:21:46.473Z,100786.03
2022-10-26T04:26:47.997Z,100786.22
2022-10-26T04:31:49.540Z,100783.34
2022-10-26T04:36:51.050Z,100782.34
2022-10-26T04:41:54.376Z,100776.09
2022-10-26T04:46:55.934Z,100788.25
2022-10-26T04:51:57.436Z,100775.88
2022-10-26T04:56:59.063Z,100773.25
2022-10-26T05:02:00.705Z,100774.69
2022-10-26T05:07:02.344Z,100773.69
2022-10-26T05:12:04.203Z,100770.38
2022-10-26T05:17:05.813Z,100769.78
2022-10-26T05:22:07.428Z,100760.06
2022-10-26T05:27:09.094Z,100763.09
2022-10-26T05:32:10.615Z,100771.84
2022-10-26T05:37:12.114Z,100777.09
2022-10-26T05:42:13.598Z,100771.25
2022-10-26T05:47:15.086Z,100780.41
2022-10-26T05:52:16.603Z,100791.34
2022-10-26T05:57:18.346Z,100802.28
2022-10-26T06:02:45.593Z,100807.38
2022-10-26T06:07:47.762Z,100817.34
2022-10-26T06:12:50.121Z,100822.63
2022-10-26T06:18:00.837Z,100816.94
2022-10-26T06:23:21.318Z,100819.34
2022-10-26T06:29:03.370Z,100837.63
2022-10-26T06:34:05.037Z,100839.44
2022-10-26T06:39:10.081Z,100852.03
2022-10-26T06:44:19.327Z,100855.25
2022-10-26T06:49:32.060Z,100842.91
2022-10-26T06:54:51.542Z,100840.25
2022-10-26T07:00:02.072Z,100851.63
2022-10-26T07:05:03.809Z,100840.25
2022-10-26T07:10:05.766Z,100839.22
2022-10-26T07:20:19.308Z,100858.91
2022-10-26T07:25:20.714Z,100862.97
2022-10-26T07:30:22.211Z,100858.91
2022-10-26T07:35:23.836Z,100882.22
2022-10-26T07:40:25.812Z,100883.25
2022-10-26T07:45:28.696Z,100892.97
2022-10-26T07:50:30.237Z,100885.25
2022-10-26T07:55:31.940Z,100866.59
2022-10-26T08:00:33.539Z,100880.59
2022-10-26T08:05:35.690Z,100877.09
2022-10-26T08:10:37.239Z,100884.56
2022-10-26T08:15:39.306Z,100874.47
2022-10-26T08:20:41.590Z,100893.31
2022-10-26T08:25:43.293Z,100894.06
2022-10-26T08:30:44.853Z,100889.44
2022-10-26T08:35:46.521Z,100905.16
2022-10-26T08:40:48.268Z,100901.97
2022-10-26T08:46:02.748Z,100906.19
2022-10-26T08:51:14.621Z,100917.22
2022-10-26T08:56:23.887Z,100935.75
2022-10-26T09:01:25.555Z,100930.63
2022-10-26T09:06:35.555Z,100932.66
2022-10-26T09:12:09.439Z,100925.69
2022-10-26T09:17:48.191Z,100917.56
2022-10-26T09:23:11.494Z,100941.72
2022-10-26T09:28:18.019Z,100936.06
2022-10-26T09:33:24.630Z,100957.34
2022-10-26T09:38:30.547Z,100960.09
2022-10-26T09:43:42.772Z,100959.91
2022-10-26T09:48:48.611Z,100969.72
2022-10-26T09:53:50.477Z,100970.84
2022-10-26T09:59:00.728Z,100983.97
2022-10-26T10:04:14.315Z,100991.72
2022-10-26T10:09:21.695Z,100996.72
2022-10-26T10:14:39.012Z,100995.72
2022-10-26T10:19:41.547Z,101009.59
2022-10-26T10:24:54.564Z,101013.41
2022-10-26T10:30:01.653Z,101018.19
2022-10-26T10:35:29.769Z,101021.69
2022-10-26T10:40:31.795Z,101027.41
2022-10-26T10:45:35.123Z,101032.41
2022-10-26T10:50:37.191Z,101042.09
2022-10-26T10:55:39.171Z,101050.19
2022-10-26T11:00:43.966Z,101059.91
2022-10-26T11:06:17.483Z,101054.97
2022-10-26T11:11:25.291Z,101051.38
2022-10-26T11:16:31.437Z,101057.28
2022-10-26T11:21:36.794Z,101068.50
2022-10-26T11:26:46.350Z,101070.03
2022-10-26T11:31:57.493Z,101076.00
2022-10-26T11:37:37.838Z,101076.03
2022-10-26T11:42:54.498Z,101085.97
2022-10-26T11:47:55.939Z,101086.72
2022-10-26T11:53:00.418Z,101083.91
2022-10-26T11:58:03.506Z,101077.66
2022-10-26T12:03:17.099Z,101077.72
2022-10-26T12:08:27.315Z,101076.28
2022-10-26T12:13:32.950Z,101085.41
2022-10-26T12:18:54.366Z,101089.72
2022-10-26T12:24:02.084Z,101096.81
2022-10-26T12:29:03.572Z,101099.09
2022-10-26T12:34:13.134Z,101103.38
2022-10-26T12:39:37.946Z,101103.38
2022-10-26T12:44:45.485Z,101115.97
2022-10-26T12:50:08.324Z,101117.88
2022-10-26T12:55:12.670Z,101124.50
2022-10-26T13:00:22.417Z,101125.34
2022-10-26T13:05:45.523Z,101124.41
2022-10-26T13:11:24.353Z,101127.38
2022-10-26T13:16:28.255Z,101122.00
2022-10-26T13:21:30.073Z,101121.06
2022-10-26T13:26:52.345Z,101127.25
2022-10-26T13:31:55.197Z,101142.56
2022-10-26T13:37:03.684Z,101146.56
2022-10-26T13:42:07.295Z,101145.00
2022-10-26T13:47:19.392Z,101158.78
2022-10-26T13:52:40.878Z,101163.19
2022-10-26T13:57:45.919Z,101162.41
2022-10-26T14:02:48.051Z,101163.19
2022-10-26T14:07:56.878Z,101172.03
2022-10-26T14:13:00.170Z,101168.81
2022-10-26T14:18:04.040Z,101168.00
2022-10-26T14:23:05.664Z,101177.41
2022-10-26T14:28:28.460Z,101178.72
2022-10-26T14:33:30.344Z,101188.13
2022-10-26T14:38:39.260Z,101191.53
2022-10-26T14:43:40.919Z,101189.94
2022-10-26T14:48:53.540Z,101186.63
2022-10-26T14:53:58.564Z,101189.38
2022-10-26T14:59:29.853Z,101192.41
2022-10-26T15:04:31.269Z,101196.44
2022-10-26T15:09:55.609Z,101199.75
2022-10-26T15:15:10.870Z,101199.25
2022-10-26T15:20:17.991Z,101199.09
2022-10-26T15:25:23.450Z,101200.28
2022-10-26T15:30:27.943Z,101202.81
2022-10-26T15:35:31.828Z,101211.19
2022-10-26T15:40:33.373Z,101219.13
2022-10-26T15:45:38.413Z,101227.66
2022-10-26T15:50:41.320Z,101237.28
2022-10-26T15:55:42.986Z,101236.03
2022-10-26T16:00:45.164Z,101249.66
2022-10-26T16:05:46.968Z,101257.09
2022-10-26T16:10:48.882Z,101255.25
2022-10-26T16:15:50.382Z,101266.25
2022-10-26T16:20:51.906Z,101272.09
2022-10-26T16:25:53.476Z,101278.25
2022-10-26T16:31:10.441Z,101285.97
2022-10-26T16:36:13.652Z,101284.81
2022-10-26T16:41:16.040Z,101290.56
2022-10-26T16:46:20.701Z,101306.69
2022-10-26T16:51:24.436Z,101313.75
2022-10-26T16:56:28.574Z,101331.13
2022-10-26T17:01:30.189Z,101337.00
2022-10-26T17:06:31.804Z,101349.03
2022-10-26T17:11:33.354Z,101358.41
2022-10-26T17:16:34.930Z,101360.22
2022-10-26T17:21:36.429Z,101369.28
2022-10-26T17:26:37.942Z,101377.31
2022-10-26T17:31:39.883Z,101402.31
2022-10-26T17:36:41.396Z,101408.09
2022-10-26T17:41:42.909Z,101417.13
2022-10-26T17:46:44.639Z,101426.75
2022-10-26T17:51:46.160Z,101435.50
2022-10-26T17:56:47.789Z,101448.13
2022-10-26T18:01:49.427Z,101458.47
2022-10-26T18:06:51.109Z,101463.56
2022-10-26T18:11:55.070Z,101470.22
2022-10-26T18:16:57.557Z,101473.97
2022-10-26T18:21:59.108Z,101486.47
2022-10-26T18:27:00.653Z,101491.69
2022-10-26T18:32:02.172Z,101507.09
2022-10-26T18:37:03.800Z,101504.34
2022-10-26T18:42:05.399Z,101515.06
2022-10-26T18:47:06.946Z,101519.34
2022-10-26T18:52:09.085Z,101527.13
2022-10-26T18:57:10.793Z,101527.88
2022-10-26T19:02:14.331Z,101538.66
2022-10-26T19:07:15.883Z,101537.81
2022-10-26T19:12:17.439Z,101535.06
2022-10-26T19:17:18.944Z,101538.47
2022-10-26T19:22:20.503Z,101548.91
2022-10-26T19:27:21.986Z,101555.88
2022-10-26T19:32:26.288Z,101553.22
2022-10-26T19:37:28.585Z,101559.41
2022-10-26T19:42:30.158Z,101558.47
2022-10-26T19:47:31.702Z,101560.94
2022-10-26T19:52:33.275Z,101567.91
2022-10-26T19:57:34.802Z,101564.25
2022-10-26T20:02:36.326Z,101572.38
2022-10-26T20:07:37.992Z,101586.94
2022-10-26T20:12:39.518Z,101583.41
2022-10-26T20:22:43.612Z,101585.22
2022-10-26T20:27:48.196Z,101600.50
2022-10-26T20:32:49.948Z,101594.66
2022-10-26T20:37:52.562Z,101603.28
2022-10-26T20:42:55.260Z,101597.88
2022-10-26T20:47:58.712Z,101597.78
2022-10-26T20:53:26.749Z,101609.81
2022-10-26T20:58:48.959Z,101608.09
2022-10-26T21:03:51.312Z,101621.44
2022-10-26T21:08:55.282Z,101615.69
2022-10-26T21:13:57.215Z,101621.53
2022-10-26T21:18:58.759Z,101635.56
2022-10-26T21:24:00.373Z,101639.91
2022-10-26T21:29:01.950Z,101638.53
2022-10-26T21:34:03.514Z,101638.81
2022-10-26T21:39:05.132Z,101639.50
2022-10-26T21:44:09.342Z,101640.59
2022-10-26T21:49:17.123Z,101634.94
2022-10-26T21:54:18.732Z,101645.13
2022-10-26T21:59:20.354Z,101640.53
2022-10-26T22:04:21.913Z,101647.81
2022-10-26T22:09:23.462Z,101649.16
2022-10-26T22:14:24.955Z,101642.63
2022-10-26T22:19:26.513Z,101651.63
2022-10-26T22:24:28.014Z,101642.38
2022-10-26T22:29:29.643Z,101655.47
2022-10-26T22:34:31.192Z,101653.72
2022-10-26T22:39:32.692Z,101658.78
2022-10-26T22:44:34.304Z,101654.09
2022-10-26T22:49:35.815Z,101659.75
2022-10-26T22:54:37.356Z,101658.91
2022-10-26T22:59:38.863Z,101657.81
2022-10-26T23:04:40.465Z,101670.25
2022-10-26T23:09:42.023Z,101669.81
2022-10-26T23:14:43.548Z,101661.19
2022-10-26T23:19:45.066Z,101664.47
2022-10-26T23:24:46.594Z,101660.97
2022-10-26T23:29:48.099Z,101658.34
2022-10-26T23:34:49.598Z,101662.84
2022-10-26T23:39:51.112Z,101659.81
2022-10-26T23:44:52.622Z,101665.19
2022-10-26T23:49:54.181Z,101675.00
2022-10-26T23:54:55.729Z,101676.00
2022-10-26T23:59:57.250Z,101674.19
